createdAt,value
2023-04-01T00:00:25.462Z,100975.59
2023-04-01T00:03:55.269Z,100967.16
2023-04-01T00:07:24.907Z,100966.33
2023-04-01T00:11:00.354Z,100955.97
2023-04-01T00:14:29.535Z,100958.02
2023-04-01T00:18:01.244Z,100947.95
2023-04-01T00:21:30.369Z,100941.36
2023-04-01T00:25:00.327Z,100927.26
2023-04-01T00:28:29.883Z,100914.25
2023-04-01T00:31:59.382Z,100908.19
2023-04-01T00:35:29.046Z,100903.85
2023-04-01T00:38:58.210Z,100899.31
2023-04-01T00:42:27.799Z,100893.17
2023-04-01T00:46:06.256Z,100888.26
2023-04-01T00:49:37.825Z,100893.41
2023-04-01T00:53:07.005Z,100889.30
2023-04-01T00:56:39.662Z,100873.66
2023-04-01T01:00:09.114Z,100878.88
2023-04-01T01:03:29.089Z,100867.31
2023-04-01T01:07:07.016Z,100862.82
2023-04-01T01:10:37.952Z,100854.75
2023-04-01T01:14:19.628Z,100851.27
2023-04-01T01:17:54.570Z,100845.66
2023-04-01T01:21:23.738Z,100850.36
2023-04-01T01:24:51.556Z,100845.13
2023-04-01T01:28:20.620Z,100840.66
2023-04-01T01:31:59.599Z,100834.68
2023-04-01T01:35:36.400Z,100828.06
2023-04-01T01:39:02.004Z,100824.40
2023-04-01T01:42:31.417Z,100820.21
2023-04-01T01:45:54.154Z,100818.44
2023-04-01T01:49:23.346Z,100813.75
2023-04-01T01:52:52.627Z,100806.46
2023-04-01T01:56:30.753Z,100806.05
2023-04-01T02:00:03.085Z,100803.61
2023-04-01T02:03:32.140Z,100803.08
2023-04-01T02:06:55.504Z,100794.79
2023-04-01T02:10:25.420Z,100794.95
2023-04-01T02:14:19.560Z,100790.09
2023-04-01T02:17:47.702Z,100787.05
2023-04-01T02:21:17.497Z,100787.94
2023-04-01T02:24:46.689Z,100783.26
2023-04-01T02:28:16.293Z,100773.71
2023-04-01T02:31:48.623Z,100777.02
2023-04-01T02:35:10.540Z,100772.73
2023-04-01T02:38:39.897Z,100767.38
2023-04-01T02:42:08.869Z,100761.67
2023-04-01T02:45:38.196Z,100755.77
2023-04-01T02:49:07.687Z,100760.09
2023-04-01T02:52:37.086Z,100765.98
2023-04-01T02:56:06.209Z,100764.48
2023-04-01T02:59:35.799Z,100762.45
2023-04-01T03:02:50.554Z,100752.88
2023-04-01T03:06:21.595Z,100755.06
2023-04-01T03:09:50.799Z,100749.84
2023-04-01T03:13:19.982Z,100747.52
2023-04-01T03:16:49.235Z,100744.04
2023-04-01T03:20:18.233Z,100739.48
2023-04-01T03:23:47.485Z,100737.42
2023-04-01T03:27:16.684Z,100734.83
2023-04-01T03:30:46.715Z,100731.02
2023-04-01T03:34:04.619Z,100726.52
2023-04-01T03:37:34.075Z,100724.60
2023-04-01T03:41:03.289Z,100725.06
2023-04-01T03:44:32.987Z,100724.28
2023-04-01T03:48:02.800Z,100720.71
2023-04-01T03:51:31.996Z,100716.06
2023-04-01T03:55:01.838Z,100718.88
2023-04-01T03:58:30.872Z,100721.58
2023-04-01T04:02:00.155Z,100722.27
2023-04-01T04:05:29.615Z,100718.64
2023-04-01T04:08:50.463Z,100717.05
2023-04-01T04:12:10.204Z,100712.77
2023-04-01T04:15:39.304Z,100699.17
2023-04-01T04:19:08.757Z,100695.27
2023-04-01T04:22:37.887Z,100698.44
2023-04-01T04:26:48.148Z,100698.63
2023-04-01T04:30:00.200Z,100691.55
2023-04-01T04:33:29.684Z,100694.19
2023-04-01T04:37:00.002Z,100691.05
2023-04-01T04:40:31.992Z,100692.40
2023-04-01T04:44:01.535Z,100696.02
2023-04-01T04:47:30.896Z,100690.60
2023-04-01T04:50:53.070Z,100693.00
2023-04-01T04:54:22.108Z,100692.09
2023-04-01T04:57:51.155Z,100692.25
2023-04-01T05:01:20.666Z,100686.35
2023-04-01T05:04:49.559Z,100688.11
2023-04-01T05:08:18.511Z,100684.16
2023-04-01T05:11:47.663Z,100680.42
2023-04-01T05:15:19.581Z,100675.92
2023-04-01T05:18:49.044Z,100676.96
2023-04-01T05:22:11.211Z,100682.50
2023-04-01T05:25:40.448Z,100681.25
2023-04-01T05:29:10.760Z,100683.83
2023-04-01T05:32:33.729Z,100683.89
2023-04-01T05:36:02.976Z,100681.16
2023-04-01T05:39:32.483Z,100678.58
2023-04-01T05:43:01.592Z,100677.33
2023-04-01T05:46:30.976Z,100676.27
2023-04-01T05:49:50.577Z,100680.92
2023-04-01T05:53:20.135Z,100683.17
2023-04-01T05:56:49.784Z,100688.49
2023-04-01T06:00:19.118Z,100685.72
2023-04-01T06:03:54.396Z,100683.13
2023-04-01T06:07:26.456Z,100679.54
2023-04-01T06:10:56.522Z,100675.94
2023-04-01T06:14:31.671Z,100680.67
2023-04-01T06:18:06.993Z,100675.71
2023-04-01T06:21:45.727Z,100666.90
2023-04-01T06:25:30.629Z,100660.58
2023-04-01T06:29:31.217Z,100662.55
2023-04-01T06:32:56.330Z,100667.49
2023-04-01T06:36:35.404Z,100669.16
2023-04-01T06:40:13.323Z,100661.11
2023-04-01T06:43:46.155Z,100658.04
2023-04-01T06:47:46.297Z,100660.61
2023-04-01T06:51:33.206Z,100661.14
2023-04-01T06:55:09.281Z,100670.36
2023-04-01T06:58:39.172Z,100676.26
2023-04-01T07:04:53.550Z,100696.58
2023-04-01T07:08:23.313Z,100705.45
2023-04-01T07:11:58.697Z,100710.53
2023-04-01T07:15:31.101Z,100717.13
2023-04-01T07:19:01.000Z,100720.80
2023-04-01T07:22:31.251Z,100723.86
2023-04-01T07:26:01.609Z,100732.48
2023-04-01T07:29:34.503Z,100735.16
2023-04-01T07:32:58.258Z,100736.28
2023-04-01T07:36:34.354Z,100742.35
2023-04-01T07:40:25.564Z,100750.02
2023-04-01T07:44:01.543Z,100757.50
2023-04-01T07:47:34.232Z,100760.05
2023-04-01T07:51:09.898Z,100759.55
2023-04-01T07:54:42.347Z,100767.13
2023-04-01T07:58:20.424Z,100767.37
2023-04-01T08:01:54.292Z,100767.16
2023-04-01T08:05:29.692Z,100768.15
2023-04-01T08:09:08.019Z,100776.07
2023-04-01T08:12:47.740Z,100780.45
2023-04-01T08:16:23.631Z,100776.80
2023-04-01T08:20:14.536Z,100777.58
2023-04-01T08:23:44.122Z,100779.08
2023-04-01T08:27:11.847Z,100786.94
2023-04-01T08:30:47.721Z,100792.15
2023-04-01T08:34:23.581Z,100797.92
2023-04-01T08:38:14.577Z,100799.60
2023-04-01T08:42:00.109Z,100809.67
2023-04-01T08:45:28.186Z,100810.93
2023-04-01T08:48:59.497Z,100816.14
2023-04-01T08:52:39.275Z,100818.48
2023-04-01T08:56:24.252Z,100818.58
2023-04-01T09:00:15.535Z,100816.23
2023-04-01T09:03:53.215Z,100813.59
2023-04-01T09:07:20.936Z,100820.09
2023-04-01T09:10:55.547Z,100818.98
2023-04-01T09:14:23.321Z,100829.67
2023-04-01T09:18:02.416Z,100834.59
2023-04-01T09:21:30.158Z,100829.19
2023-04-01T09:25:14.808Z,100826.77
2023-04-01T09:28:47.695Z,100828.76
2023-04-01T09:32:15.265Z,100827.41
2023-04-01T09:36:00.200Z,100828.52
2023-04-01T09:39:33.024Z,100821.77
2023-04-01T09:43:08.594Z,100825.09
2023-04-01T09:46:30.118Z,100821.39
2023-04-01T09:50:07.670Z,100822.45
2023-04-01T09:53:46.658Z,100817.98
2023-04-01T09:57:22.517Z,100815.55
2023-04-01T10:00:53.852Z,100823.29
2023-04-01T10:04:38.614Z,100834.38
2023-04-01T10:08:24.472Z,100837.94
2023-04-01T10:11:51.227Z,100831.49
2023-04-01T10:15:30.069Z,100833.13
2023-04-01T10:19:02.641Z,100832.51
2023-04-01T10:22:33.814Z,100833.27
2023-04-01T10:26:16.457Z,100830.07
2023-04-01T10:29:43.908Z,100836.68
2023-04-01T10:33:27.663Z,100842.61
2023-04-01T10:36:58.598Z,100844.69
2023-04-01T10:40:40.253Z,100842.17
2023-04-01T10:44:23.511Z,100843.14
2023-04-01T10:48:02.474Z,100838.52
2023-04-01T10:51:49.406Z,100843.50
2023-04-01T10:55:19.110Z,100845.84
2023-04-01T10:58:57.625Z,100847.50
2023-04-01T11:02:27.294Z,100844.56
2023-04-01T11:06:01.607Z,100839.99
2023-04-01T11:09:46.505Z,100837.67
2023-04-01T11:13:18.779Z,100833.34
2023-04-01T11:17:03.542Z,100833.08
2023-04-01T11:20:31.505Z,100837.55
2023-04-01T11:24:25.556Z,100836.21
2023-04-01T11:28:17.170Z,100839.66
2023-04-01T11:31:43.230Z,100841.86
2023-04-01T11:35:04.807Z,100844.46
2023-04-01T11:38:35.482Z,100835.41
2023-04-01T11:42:11.513Z,100830.98
2023-04-01T11:45:08.654Z,100830.67
2023-04-01T11:48:50.806Z,100827.05
2023-04-01T11:52:18.401Z,100823.05
2023-04-01T11:55:50.578Z,100817.86
2023-04-01T11:59:31.700Z,100817.42
2023-04-01T12:03:04.651Z,100819.94
2023-04-01T12:06:49.204Z,100817.20
2023-04-01T12:10:24.377Z,100814.85
2023-04-01T12:13:42.846Z,100815.14
2023-04-01T12:16:52.396Z,100819.73
2023-04-01T12:20:24.799Z,100821.30
2023-04-01T12:24:06.783Z,100824.13
2023-04-01T12:27:48.168Z,100812.27
2023-04-01T12:31:22.452Z,100804.45
2023-04-01T12:34:39.404Z,100801.36
2023-04-01T12:38:13.372Z,100796.14
2023-04-01T12:41:54.416Z,100799.21
2023-04-01T12:45:24.340Z,100806.49
2023-04-01T12:49:05.374Z,100811.56
2023-04-01T12:52:50.572Z,100810.26
2023-04-01T12:56:05.487Z,100813.69
2023-04-01T12:59:38.104Z,100814.52
2023-04-01T13:03:06.312Z,100813.93
2023-04-01T13:06:43.901Z,100814.04
2023-04-01T13:10:11.497Z,100821.60
2023-04-01T13:13:50.548Z,100819.68
2023-04-01T13:17:08.664Z,100813.51
2023-04-01T13:20:39.114Z,100810.87
2023-04-01T13:24:33.375Z,100812.03
2023-04-01T13:28:05.229Z,100803.42
2023-04-01T13:31:53.287Z,100812.67
2023-04-01T13:35:31.903Z,100817.60
2023-04-01T13:39:10.637Z,100819.80
2023-04-01T13:42:45.783Z,100827.66
2023-04-01T13:46:22.234Z,100823.58
2023-04-01T13:50:13.163Z,100827.13
2023-04-01T13:53:54.046Z,100826.71
2023-04-01T13:57:48.358Z,100833.70
2023-04-01T14:01:20.997Z,100836.70
2023-04-01T14:04:44.571Z,100841.67
2023-04-01T14:08:12.389Z,100840.92
2023-04-01T14:11:56.463Z,100839.58
2023-04-01T14:15:38.344Z,100844.80
2023-04-01T14:19:05.771Z,100849.58
2023-04-01T14:22:34.232Z,100852.66
2023-04-01T14:26:05.105Z,100853.52
2023-04-01T14:29:46.680Z,100862.45
2023-04-01T14:33:31.377Z,100865.48
2023-04-01T14:37:01.447Z,100871.77
2023-04-01T14:40:29.235Z,100875.05
2023-04-01T14:44:07.447Z,100882.09
2023-04-01T14:47:43.960Z,100884.52
2023-04-01T14:51:13.683Z,100890.00
2023-04-01T14:54:45.372Z,100890.46
2023-04-01T14:58:17.449Z,100895.52
2023-04-01T15:01:58.385Z,100901.30
2023-04-01T15:05:29.103Z,100907.03
2023-04-01T15:09:20.451Z,100910.16
2023-04-01T15:13:08.161Z,100918.17
2023-04-01T15:17:11.679Z,100920.84
2023-04-01T15:20:47.784Z,100927.23
2023-04-01T15:24:14.851Z,100929.83
2023-04-01T15:27:47.803Z,100933.83
2023-04-01T15:31:05.541Z,100932.84
2023-04-01T15:34:48.872Z,100932.79
2023-04-01T15:38:21.618Z,100937.03
2023-04-01T15:41:59.715Z,100932.80
2023-04-01T15:45:43.842Z,100931.67
2023-04-01T15:49:28.158Z,100932.16
2023-04-01T15:53:08.315Z,100935.68
2023-04-01T15:57:02.397Z,100935.86
2023-04-01T16:00:39.580Z,100938.42
2023-04-01T16:04:27.634Z,100935.89
2023-04-01T16:08:03.168Z,100939.50
2023-04-01T16:11:16.345Z,100943.02
2023-04-01T16:14:59.490Z,100946.23
2023-04-01T16:18:50.179Z,100949.39
2023-04-01T16:22:32.272Z,100944.95
2023-04-01T16:26:05.377Z,100944.26
2023-04-01T16:29:41.168Z,100940.55
2023-04-01T16:33:19.532Z,100942.67
2023-04-01T16:37:06.227Z,100942.73
2023-04-01T16:40:32.885Z,100941.23
2023-04-01T16:44:17.894Z,100940.43
2023-04-01T16:47:50.465Z,100938.45
2023-04-01T16:51:23.144Z,100945.27
2023-04-01T16:55:04.690Z,100949.55
2023-04-01T16:58:49.525Z,100956.64
2023-04-01T17:02:34.889Z,100962.05
2023-04-01T17:06:04.542Z,100966.16
2023-04-01T17:09:38.397Z,100977.14
2023-04-01T17:13:20.175Z,100984.84
2023-04-01T17:17:10.275Z,100993.81
2023-04-01T17:21:04.558Z,100996.39
2023-04-01T17:24:49.408Z,100995.49
2023-04-01T17:28:09.948Z,100992.63
2023-04-01T17:31:54.472Z,100992.67
2023-04-01T17:35:25.551Z,100994.65
2023-04-01T17:39:19.508Z,101003.08
2023-04-01T17:43:02.521Z,101006.53
2023-04-01T17:46:20.295Z,101006.00
2023-04-01T17:50:17.328Z,101004.15
2023-04-01T17:53:52.503Z,101005.55
2023-04-01T17:57:25.122Z,101003.20
2023-04-01T18:00:57.908Z,101002.42
2023-04-01T18:04:58.385Z,101009.73
2023-04-01T18:08:40.324Z,101014.02
2023-04-01T18:12:13.050Z,101017.86
2023-04-01T18:15:48.890Z,101019.96
2023-04-01T18:19:29.504Z,101025.13
2023-04-01T18:23:03.240Z,101023.55
2023-04-01T18:26:38.230Z,101027.80
2023-04-01T18:30:20.621Z,101025.69
2023-04-01T18:33:52.841Z,101033.65
2023-04-01T18:37:15.566Z,101036.75
2023-04-01T18:40:54.332Z,101032.34
2023-04-01T18:44:27.164Z,101029.59
2023-04-01T18:48:08.433Z,101029.49
2023-04-01T18:51:47.611Z,101028.41
2023-04-01T18:55:17.495Z,101029.45
2023-04-01T18:58:55.885Z,101025.50
2023-04-01T19:02:34.653Z,101022.64
2023-04-01T19:06:07.203Z,101015.61
2023-04-01T19:09:29.597Z,101013.38
2023-04-01T19:12:53.464Z,101014.77
2023-04-01T19:16:28.717Z,101009.62
2023-04-01T19:20:12.912Z,101010.34
2023-04-01T19:24:04.033Z,101006.58
2023-04-01T19:27:35.068Z,101006.54
2023-04-01T19:31:23.551Z,101002.50
2023-04-01T19:35:04.819Z,100999.61
2023-04-01T19:38:40.308Z,100998.54
2023-04-01T19:42:12.716Z,101000.35
2023-04-01T19:45:47.944Z,100997.86
2023-04-01T19:49:18.870Z,101000.67
2023-04-01T19:53:03.403Z,100993.36
2023-04-01T19:56:45.525Z,100995.70
2023-04-01T20:00:14.911Z,100986.52
2023-04-01T20:03:47.146Z,100984.56
2023-04-01T20:07:21.574Z,100975.17
2023-04-01T20:10:54.310Z,100967.55
2023-04-01T20:14:42.379Z,100966.75
2023-04-01T20:18:27.208Z,100954.98
2023-04-01T20:22:17.533Z,100954.96
2023-04-01T20:25:49.537Z,100948.16
2023-04-01T20:29:22.279Z,100943.60
2023-04-01T20:33:23.864Z,100936.35
2023-04-01T20:36:52.621Z,100933.86
2023-04-01T20:40:20.630Z,100926.61
2023-04-01T20:43:54.693Z,100928.86
2023-04-01T20:47:30.030Z,100946.95
2023-04-01T20:51:20.819Z,100951.13
2023-04-01T20:55:01.216Z,100957.84
2023-04-01T20:58:34.201Z,100957.84
2023-04-01T21:02:13.230Z,100962.98
2023-04-01T21:05:55.996Z,100975.25
2023-04-01T21:09:34.906Z,100986.78
2023-04-01T21:13:06.057Z,101007.44
2023-04-01T21:16:38.257Z,101009.98
2023-04-01T21:19:39.274Z,101023.37
2023-04-01T21:23:20.595Z,101035.09
2023-04-01T21:26:56.926Z,101033.43
2023-04-01T21:30:47.951Z,101027.46
2023-04-01T21:34:34.923Z,101033.47
2023-04-01T21:38:15.992Z,101026.96
2023-04-01T21:41:49.107Z,101028.66
2023-04-01T21:45:32.798Z,101032.98
2023-04-01T21:49:19.131Z,101029.52
2023-04-01T21:53:03.608Z,101036.41
2023-04-01T21:56:45.694Z,101037.35
2023-04-01T22:00:21.202Z,101042.35
2023-04-01T22:03:56.968Z,101042.35
2023-04-01T22:07:26.507Z,101044.14
2023-04-01T22:11:02.114Z,101045.92
2023-04-01T22:14:19.989Z,101046.41
2023-04-01T22:18:04.568Z,101041.31
2023-04-01T22:21:37.001Z,101035.70
2023-04-01T22:25:12.143Z,101037.19
2023-04-01T22:28:32.847Z,101039.10
2023-04-01T22:32:05.460Z,101046.09
2023-04-01T22:35:53.481Z,101052.50
2023-04-01T22:39:53.202Z,101051.92
2023-04-01T22:43:21.883Z,101055.21
2023-04-01T22:47:03.683Z,101059.46
2023-04-01T22:50:25.454Z,101065.46
2023-04-01T22:53:55.076Z,101066.46
2023-04-01T22:57:27.509Z,101070.11
2023-04-01T23:00:57.234Z,101077.65
2023-04-01T23:04:29.891Z,101078.14
2023-04-01T23:08:17.291Z,101080.97
2023-04-01T23:11:49.751Z,101087.23
2023-04-01T23:15:31.895Z,101089.52
2023-04-01T23:19:14.076Z,101090.64
2023-04-01T23:22:49.505Z,101095.09
2023-04-01T23:26:22.148Z,101099.45
2023-04-01T23:29:51.780Z,101098.98
2023-04-01T23:33:21.549Z,101100.44
2023-04-01T23:36:53.801Z,101100.80
2023-04-01T23:40:26.447Z,101101.80
2023-04-01T23:44:05.952Z,101100.58
2023-04-01T23:47:34.804Z,101097.84
2023-04-01T23:51:07.478Z,101098.55
2023-04-01T23:54:39.925Z,101099.19
2023-04-01T23:58:12.198Z,101100.13
